createdAt,value
2019-04-27T00:02:39.217Z,7.53
2019-04-27T00:05:32.098Z,7.27
2019-04-27T00:08:21.098Z,7.47
2019-04-27T00:11:08.648Z,7.90
2019-04-27T00:13:40.747Z,6.77
2019-04-27T00:16:23.535Z,6.33
2019-04-27T00:19:11.000Z,7.10
2019-04-27T00:21:47.662Z,7.50
2019-04-27T00:24:16.714Z,7.37
2019-04-27T00:26:45.512Z,6.27
2019-04-27T00:29:13.778Z,6.00
2019-04-27T00:31:43.446Z,5.90
2019-04-27T00:34:13.346Z,5.90
2019-04-27T00:36:50.009Z,5.60
2019-04-27T00:39:31.077Z,4.53
2019-04-27T00:41:58.914Z,4.57
2019-04-27T00:44:27.102Z,4.00
2019-04-27T00:46:55.791Z,4.00
2019-04-27T00:49:24.280Z,3.90
2019-04-27T00:51:54.252Z,3.60
2019-04-27T00:54:23.800Z,4.17
2019-04-27T00:57:26.458Z,3.60
2019-04-27T01:00:13.453Z,3.90
2019-04-27T01:02:48.473Z,3.70
2019-04-27T01:05:19.998Z,4.10
2019-04-27T01:07:48.063Z,4.53
2019-04-27T01:10:16.320Z,4.20
2019-04-27T01:12:45.229Z,3.97
2019-04-27T01:15:15.165Z,4.40
2019-04-27T01:17:43.072Z,4.30
2019-04-27T01:20:11.856Z,4.33
2019-04-27T01:22:41.409Z,5.13
2019-04-27T01:25:10.484Z,4.80
2019-04-27T01:27:59.533Z,4.70
2019-04-27T01:30:34.295Z,5.37
2019-04-27T01:33:04.176Z,4.53
2019-04-27T01:35:32.375Z,4.77
2019-04-27T01:38:00.486Z,4.80
2019-04-27T01:40:29.489Z,4.80
2019-04-27T01:42:58.860Z,4.30
2019-04-27T01:45:26.840Z,4.73
2019-04-27T01:47:54.784Z,4.83
2019-04-27T01:50:23.188Z,4.80
2019-04-27T01:52:51.744Z,4.50
2019-04-27T01:55:19.677Z,4.77
2019-04-27T01:57:48.728Z,4.80
2019-04-27T02:00:49.427Z,4.93
2019-04-27T02:03:20.472Z,4.53
2019-04-27T02:05:52.893Z,4.30
2019-04-27T02:08:20.914Z,3.93
2019-04-27T02:10:49.626Z,3.90
2019-04-27T02:13:18.866Z,3.97
2019-04-27T02:15:48.684Z,3.90
2019-04-27T02:18:16.836Z,3.83
2019-04-27T02:20:44.838Z,3.97
2019-04-27T02:23:12.901Z,4.10
2019-04-27T02:25:40.894Z,4.50
2019-04-27T02:28:34.418Z,4.80
2019-04-27T02:31:40.440Z,4.77
2019-04-27T02:34:11.362Z,5.17
2019-04-27T02:36:39.344Z,4.97
2019-04-27T02:39:09.493Z,4.43
2019-04-27T02:41:40.042Z,4.57
2019-04-27T02:44:30.327Z,4.60
2019-04-27T02:47:00.319Z,4.07
2019-04-27T02:49:30.388Z,4.93
2019-04-27T02:52:06.385Z,4.70
2019-04-27T02:54:34.920Z,4.20
2019-04-27T02:57:03.722Z,5.17
2019-04-27T02:59:31.665Z,4.70
2019-04-27T03:02:10.534Z,5.07
2019-04-27T03:04:39.878Z,5.80
2019-04-27T03:07:08.282Z,6.07
2019-04-27T03:09:36.229Z,5.60
2019-04-27T03:12:04.786Z,6.33
2019-04-27T03:14:50.784Z,6.37
2019-04-27T03:17:26.953Z,6.60
2019-04-27T03:20:04.049Z,6.37
2019-04-27T03:22:39.565Z,6.07
2019-04-27T03:25:26.922Z,6.30
2019-04-27T03:28:00.121Z,6.73
2019-04-27T03:30:34.725Z,6.57
2019-04-27T03:33:03.257Z,6.83
2019-04-27T03:35:35.335Z,6.87
2019-04-27T03:38:00.521Z,6.27
2019-04-27T03:40:30.748Z,6.60
2019-04-27T03:43:02.672Z,6.17
2019-04-27T03:45:30.610Z,6.30
2019-04-27T03:48:00.441Z,6.27
2019-04-27T03:50:34.144Z,6.80
2019-04-27T03:53:23.277Z,5.90
2019-04-27T03:55:53.943Z,6.63
2019-04-27T03:58:34.677Z,6.67
2019-04-27T04:01:02.699Z,6.37
2019-04-27T04:03:31.313Z,6.60
2019-04-27T04:06:00.247Z,6.80
2019-04-27T04:08:30.734Z,6.93
2019-04-27T04:11:10.312Z,7.10
2019-04-27T04:13:43.690Z,7.13
2019-04-27T04:16:20.203Z,7.00
2019-04-27T04:19:00.794Z,7.60
2019-04-27T04:21:29.939Z,7.23
2019-04-27T04:24:00.503Z,8.57
2019-04-27T04:26:29.485Z,7.93
2019-04-27T04:28:59.865Z,7.13
2019-04-27T04:31:32.474Z,7.50
2019-04-27T04:33:59.805Z,7.20
2019-04-27T04:36:30.158Z,7.50
2019-04-27T04:39:00.452Z,6.70
2019-04-27T04:41:44.843Z,6.47
2019-04-27T04:44:21.284Z,6.63
2019-04-27T04:47:10.351Z,6.60
2019-04-27T04:49:39.773Z,6.57
2019-04-27T04:52:09.634Z,6.47
2019-04-27T04:54:37.973Z,6.63
2019-04-27T04:57:05.844Z,6.50
2019-04-27T04:59:33.850Z,7.17
2019-04-27T05:02:02.324Z,7.07
2019-04-27T05:04:31.401Z,7.23
2019-04-27T05:06:59.389Z,7.50
2019-04-27T05:09:27.261Z,7.63
2019-04-27T05:11:55.525Z,7.27
2019-04-27T05:14:23.435Z,7.07
2019-04-27T05:16:51.394Z,7.33
2019-04-27T05:19:19.508Z,7.40
2019-04-27T05:21:49.171Z,7.00
2019-04-27T05:24:19.028Z,6.90
2019-04-27T05:26:48.624Z,6.87
2019-04-27T05:29:16.579Z,6.83
2019-04-27T05:31:45.067Z,6.63
2019-04-27T05:34:13.812Z,7.20
2019-04-27T05:36:48.784Z,6.83
2019-04-27T05:39:13.214Z,6.87
2019-04-27T05:41:41.822Z,6.80
2019-04-27T05:44:20.842Z,7.10
2019-04-27T05:47:11.731Z,7.23
2019-04-27T05:49:44.249Z,6.57
2019-04-27T05:52:29.961Z,6.67
2019-04-27T05:54:59.184Z,6.90
2019-04-27T05:57:30.832Z,7.23
2019-04-27T06:00:01.073Z,6.53
2019-04-27T06:02:30.241Z,7.80
2019-04-27T06:05:00.124Z,7.10
2019-04-27T06:07:29.596Z,6.43
2019-04-27T06:09:59.803Z,6.30
2019-04-27T06:12:29.593Z,7.03
2019-04-27T06:14:59.921Z,6.40
2019-04-27T06:17:29.840Z,6.33
2019-04-27T06:19:59.531Z,6.60
2019-04-27T06:22:29.240Z,6.60
2019-04-27T06:24:59.736Z,5.60
2019-04-27T06:27:30.197Z,5.87
2019-04-27T06:29:59.282Z,5.37
2019-04-27T06:32:29.569Z,5.80
2019-04-27T06:34:59.055Z,5.63
2019-04-27T06:37:29.107Z,5.37
2019-04-27T06:39:57.175Z,5.03
2019-04-27T06:42:25.112Z,4.80
2019-04-27T06:44:52.924Z,5.67
2019-04-27T06:47:20.833Z,5.37
2019-04-27T06:49:49.540Z,4.93
2019-04-27T06:52:18.700Z,5.27
2019-04-27T06:54:48.519Z,5.80
2019-04-27T06:57:16.403Z,5.37
2019-04-27T06:59:48.390Z,5.57
2019-04-27T07:02:19.023Z,5.47
2019-04-27T07:04:47.004Z,5.47
2019-04-27T07:07:14.813Z,6.03
2019-04-27T07:09:42.904Z,6.50
2019-04-27T07:12:11.411Z,6.10
2019-04-27T07:14:51.752Z,6.00
2019-04-27T07:17:09.224Z,5.60
2019-04-27T07:19:37.129Z,6.07
2019-04-27T07:22:04.907Z,5.77
2019-04-27T07:24:32.729Z,6.03
2019-04-27T07:27:00.511Z,6.10
2019-04-27T07:29:29.289Z,5.93
2019-04-27T07:31:59.621Z,5.97
2019-04-27T07:34:28.602Z,6.10
2019-04-27T07:36:59.581Z,5.67
2019-04-27T07:39:29.239Z,5.80
2019-04-27T07:41:58.604Z,5.50
2019-04-27T07:44:41.245Z,6.03
2019-04-27T07:47:20.394Z,5.87
2019-04-27T07:49:49.658Z,5.97
2019-04-27T07:52:18.551Z,5.70
2019-04-27T07:54:49.187Z,5.67
2019-04-27T07:57:17.416Z,6.23
2019-04-27T07:59:45.373Z,5.80
2019-04-27T08:02:13.312Z,5.87
2019-04-27T08:04:43.163Z,5.70
2019-04-27T08:07:11.091Z,5.43
2019-04-27T08:09:41.169Z,4.97
2019-04-27T08:12:10.888Z,5.13
2019-04-27T08:14:39.103Z,5.13
2019-04-27T08:17:07.228Z,5.50
2019-04-27T08:19:35.181Z,4.40
2019-04-27T08:22:03.269Z,4.80
2019-04-27T08:24:31.197Z,5.40
2019-04-27T08:27:09.461Z,5.20
2019-04-27T08:29:56.540Z,5.83
2019-04-27T08:32:29.875Z,5.00
2019-04-27T08:34:59.438Z,4.73
2019-04-27T08:37:28.672Z,5.00
2019-04-27T08:39:56.744Z,4.90
2019-04-27T08:42:24.663Z,5.00
2019-04-27T08:44:52.810Z,4.77
2019-04-27T08:47:20.723Z,4.90
2019-04-27T08:49:49.154Z,4.23
2019-04-27T08:52:17.247Z,5.07
2019-04-27T08:54:45.464Z,4.70
2019-04-27T08:57:13.411Z,5.03
2019-04-27T08:59:41.304Z,4.80
2019-04-27T09:02:09.962Z,4.80
2019-04-27T09:04:39.486Z,4.50
2019-04-27T09:07:25.624Z,5.10
2019-04-27T09:09:57.440Z,4.97
2019-04-27T09:12:53.507Z,5.30
2019-04-27T09:15:27.136Z,5.63
2019-04-27T09:17:55.708Z,5.67
2019-04-27T09:20:29.765Z,5.20
2019-04-27T09:22:59.190Z,5.97
2019-04-27T09:25:27.261Z,5.67
2019-04-27T09:27:55.222Z,6.37
2019-04-27T09:30:23.232Z,6.23
2019-04-27T09:32:51.155Z,6.73
2019-04-27T09:35:18.962Z,7.13
2019-04-27T09:37:47.604Z,8.03
2019-04-27T09:40:17.151Z,7.60
2019-04-27T09:42:46.367Z,9.00
2019-04-27T09:45:15.921Z,9.00
2019-04-27T09:47:44.028Z,8.93
2019-04-27T09:50:12.119Z,8.70
2019-04-27T09:52:40.664Z,9.10
2019-04-27T09:55:08.690Z,8.70
2019-04-27T09:57:37.015Z,9.00
2019-04-27T10:00:08.905Z,8.43
2019-04-27T10:02:36.992Z,8.77
2019-04-27T10:05:06.062Z,8.70
2019-04-27T10:07:35.750Z,8.40
2019-04-27T10:10:06.463Z,8.00
2019-04-27T10:12:36.889Z,9.20
2019-04-27T10:15:06.780Z,9.53
2019-04-27T10:17:34.728Z,9.37
2019-04-27T10:20:02.852Z,8.93
2019-04-27T10:22:40.399Z,8.93
2019-04-27T10:25:00.716Z,8.60
2019-04-27T10:27:29.477Z,8.70
2019-04-27T10:29:58.524Z,9.33
2019-04-27T10:32:26.633Z,8.93
2019-04-27T10:34:54.526Z,18.53
2019-04-27T10:37:22.388Z,12.40
2019-04-27T10:39:50.177Z,11.23
2019-04-27T10:42:18.194Z,9.77
2019-04-27T10:44:46.367Z,8.10
2019-04-27T10:47:15.786Z,9.13
2019-04-27T10:49:43.716Z,8.87
2019-04-27T10:52:11.784Z,8.27
2019-04-27T10:54:39.574Z,8.20
2019-04-27T10:57:07.651Z,7.47
2019-04-27T10:59:36.132Z,8.83
2019-04-27T11:02:04.359Z,9.00
2019-04-27T11:05:03.560Z,8.80
2019-04-27T11:07:36.275Z,21.00
2019-04-27T11:10:07.526Z,9.03
2019-04-27T11:12:36.197Z,9.00
2019-04-27T11:15:07.754Z,9.80
2019-04-27T11:17:37.087Z,8.63
2019-04-27T11:20:07.719Z,8.83
2019-04-27T11:22:36.393Z,9.30
2019-04-27T11:25:06.214Z,8.63
2019-04-27T11:27:34.447Z,9.03
2019-04-27T11:30:02.653Z,8.07
2019-04-27T11:32:30.604Z,9.17
2019-04-27T11:35:12.758Z,8.10
2019-04-27T11:37:40.645Z,8.43
2019-04-27T11:40:10.485Z,9.33
2019-04-27T11:42:38.611Z,8.70
2019-04-27T11:45:07.270Z,9.20
2019-04-27T11:47:36.534Z,8.30
2019-04-27T11:50:06.345Z,9.70
2019-04-27T11:52:34.791Z,8.87
2019-04-27T11:55:03.026Z,7.30
2019-04-27T11:57:30.800Z,8.03
2019-04-27T11:59:58.847Z,8.67
2019-04-27T12:02:26.635Z,8.17
2019-04-27T12:04:54.604Z,9.07
2019-04-27T12:07:22.627Z,8.97
2019-04-27T12:09:50.597Z,9.67
2019-04-27T12:12:21.741Z,8.50
2019-04-27T12:14:48.436Z,15.13
2019-04-27T12:17:16.591Z,16.17
2019-04-27T12:19:46.434Z,51.77
2019-04-27T12:22:16.280Z,39.07
2019-04-27T12:24:45.751Z,9.93
2019-04-27T12:27:30.377Z,11.70
2019-04-27T12:30:06.267Z,9.23
2019-04-27T12:32:36.019Z,9.03
2019-04-27T12:35:04.302Z,8.13
2019-04-27T12:37:32.191Z,7.97
2019-04-27T12:40:00.124Z,7.90
2019-04-27T12:42:28.675Z,7.80
2019-04-27T12:44:56.614Z,7.73
2019-04-27T12:47:26.215Z,7.83
2019-04-27T12:49:57.517Z,8.17
2019-04-27T12:52:23.947Z,8.13
2019-04-27T12:55:00.045Z,8.50
2019-04-27T12:57:37.095Z,7.53
2019-04-27T13:00:26.543Z,7.20
2019-04-27T13:02:55.603Z,7.13
2019-04-27T13:05:25.823Z,7.77
2019-04-27T13:07:53.849Z,7.53
2019-04-27T13:10:22.000Z,7.73
2019-04-27T13:12:49.976Z,7.50
2019-04-27T13:15:18.131Z,7.30
2019-04-27T13:17:46.125Z,7.63
2019-04-27T13:20:16.565Z,7.27
2019-04-27T13:22:45.891Z,7.47
2019-04-27T13:25:14.435Z,7.40
2019-04-27T13:27:42.411Z,7.37
2019-04-27T13:30:11.154Z,7.57
2019-04-27T13:32:39.130Z,6.77
2019-04-27T13:35:07.644Z,7.17
2019-04-27T13:37:42.997Z,6.40
2019-04-27T13:40:12.730Z,7.13
2019-04-27T13:43:04.060Z,6.73
2019-04-27T13:45:49.888Z,6.57
2019-04-27T13:48:36.412Z,6.80
2019-04-27T13:51:07.571Z,5.83
2019-04-27T13:53:36.813Z,6.20
2019-04-27T13:56:14.993Z,5.87
2019-04-27T13:58:43.521Z,5.40
2019-04-27T14:01:11.498Z,5.33
2019-04-27T14:03:39.608Z,5.93
2019-04-27T14:06:08.376Z,5.73
2019-04-27T14:08:38.184Z,5.20
2019-04-27T14:11:06.425Z,5.17
2019-04-27T14:13:34.212Z,5.03
2019-04-27T14:16:02.201Z,5.17
2019-04-27T14:18:29.975Z,4.70
2019-04-27T14:20:59.214Z,4.70
2019-04-27T14:23:29.256Z,4.77
2019-04-27T14:25:58.517Z,4.90
2019-04-27T14:28:28.894Z,5.53
2019-04-27T14:30:58.919Z,4.87
2019-04-27T14:33:28.408Z,4.73
2019-04-27T14:35:56.447Z,4.73
2019-04-27T14:38:24.733Z,4.70
2019-04-27T14:40:52.798Z,4.20
2019-04-27T14:43:20.871Z,4.50
2019-04-27T14:45:48.891Z,4.23
2019-04-27T14:48:18.515Z,4.73
2019-04-27T14:50:48.397Z,4.53
2019-04-27T14:53:18.614Z,4.33
2019-04-27T14:55:46.657Z,5.43
2019-04-27T14:58:14.635Z,6.90
2019-04-27T15:00:42.669Z,7.10
2019-04-27T15:03:10.534Z,4.50
2019-04-27T15:05:38.315Z,4.33
2019-04-27T15:08:09.604Z,4.53
2019-04-27T15:10:36.289Z,4.87
2019-04-27T15:13:06.414Z,4.63
2019-04-27T15:15:34.417Z,4.53
2019-04-27T15:18:05.389Z,4.70
2019-04-27T15:20:40.958Z,4.20
2019-04-27T15:23:07.249Z,5.03
2019-04-27T15:25:45.130Z,5.10
2019-04-27T15:28:07.454Z,5.03
2019-04-27T15:31:22.382Z,5.40
2019-04-27T15:33:59.577Z,5.30
2019-04-27T15:36:38.043Z,4.77
2019-04-27T15:39:12.195Z,4.20
2019-04-27T15:41:46.367Z,4.57
2019-04-27T15:44:14.326Z,4.23
2019-04-27T15:46:42.544Z,4.03
2019-04-27T15:49:11.746Z,4.20
2019-04-27T15:51:39.900Z,4.17
2019-04-27T15:54:07.888Z,4.30
2019-04-27T15:56:36.983Z,4.70
2019-04-27T15:59:06.156Z,4.40
2019-04-27T16:01:35.682Z,5.17
2019-04-27T16:04:09.481Z,4.10
2019-04-27T16:06:34.120Z,4.90
2019-04-27T16:09:02.152Z,4.57
2019-04-27T16:11:29.928Z,4.00
2019-04-27T16:13:58.751Z,3.73
2019-04-27T16:16:29.135Z,3.60
2019-04-27T16:18:57.874Z,3.13
2019-04-27T16:21:28.519Z,3.30
2019-04-27T16:23:58.193Z,2.53
2019-04-27T16:26:26.106Z,2.93
2019-04-27T16:28:53.956Z,2.90
2019-04-27T16:31:24.936Z,3.00
2019-04-27T16:33:54.137Z,3.20
2019-04-27T16:36:21.458Z,2.80
2019-04-27T16:38:57.092Z,3.13
2019-04-27T16:41:24.981Z,2.73
2019-04-27T16:43:52.977Z,3.00
2019-04-27T16:46:21.413Z,2.77
2019-04-27T16:48:49.583Z,3.30
2019-04-27T16:51:18.348Z,3.27
2019-04-27T16:53:46.654Z,3.33
2019-04-27T16:56:18.334Z,3.73
2019-04-27T16:58:49.084Z,3.83
2019-04-27T17:01:22.635Z,3.60
2019-04-27T17:03:50.675Z,3.43
2019-04-27T17:06:21.295Z,3.23
2019-04-27T17:08:49.604Z,3.30
2019-04-27T17:11:19.654Z,3.00
2019-04-27T17:13:52.214Z,2.93
2019-04-27T17:16:54.460Z,3.13
2019-04-27T17:19:28.645Z,3.00
2019-04-27T17:21:56.648Z,2.90
2019-04-27T17:24:42.634Z,3.10
2019-04-27T17:27:11.088Z,3.10
2019-04-27T17:29:40.041Z,2.87
2019-04-27T17:32:10.573Z,3.40
2019-04-27T17:34:39.749Z,3.10
2019-04-27T17:37:08.302Z,3.30
2019-04-27T17:39:36.433Z,3.50
2019-04-27T17:42:05.015Z,3.70
2019-04-27T17:44:33.130Z,3.40
2019-04-27T17:47:01.048Z,3.27
2019-04-27T17:49:29.003Z,3.60
2019-04-27T17:51:58.597Z,3.97
2019-04-27T17:54:26.666Z,4.13
2019-04-27T17:56:54.438Z,4.20
2019-04-27T17:59:22.815Z,5.13
2019-04-27T18:02:04.710Z,4.27
2019-04-27T18:04:32.941Z,5.37
2019-04-27T18:07:03.364Z,4.27
2019-04-27T18:09:33.413Z,4.10
2019-04-27T18:12:02.199Z,4.40
2019-04-27T18:14:32.745Z,3.80
2019-04-27T18:17:03.601Z,3.90
2019-04-27T18:19:49.059Z,5.97
2019-04-27T18:22:19.894Z,4.50
2019-04-27T18:25:18.729Z,4.33
2019-04-27T18:28:02.692Z,3.70
2019-04-27T18:30:38.669Z,16.43
2019-04-27T18:33:04.225Z,24.30
2019-04-27T18:35:32.510Z,28.33
2019-04-27T18:38:01.910Z,27.60
2019-04-27T18:40:32.570Z,25.33
2019-04-27T18:43:01.873Z,20.83
2019-04-27T18:45:29.707Z,13.67
2019-04-27T18:48:06.704Z,14.00
2019-04-27T18:50:48.432Z,15.53
2019-04-27T18:53:23.281Z,16.30
2019-04-27T18:55:56.540Z,14.97
2019-04-27T18:58:19.454Z,12.27
2019-04-27T19:00:48.442Z,12.13
2019-04-27T19:03:18.310Z,12.30
2019-04-27T19:05:48.090Z,13.17
2019-04-27T19:08:17.776Z,12.40
2019-04-27T19:10:46.158Z,11.87
2019-04-27T19:13:14.199Z,10.80
2019-04-27T19:15:42.217Z,9.20
2019-04-27T19:18:10.195Z,8.77
2019-04-27T19:20:39.030Z,9.23
2019-04-27T19:23:26.319Z,10.07
2019-04-27T19:26:20.568Z,8.13
2019-04-27T19:29:02.951Z,7.33
2019-04-27T19:31:33.945Z,7.57
2019-04-27T19:34:01.829Z,7.60
2019-04-27T19:36:30.428Z,8.07
2019-04-27T19:38:58.581Z,8.23
2019-04-27T19:41:28.731Z,7.83
2019-04-27T19:43:56.825Z,8.20
2019-04-27T19:46:24.826Z,8.53
2019-04-27T19:48:52.693Z,7.70
2019-04-27T19:51:21.573Z,8.40
2019-04-27T19:53:49.610Z,9.47
2019-04-27T19:56:19.363Z,9.20
2019-04-27T19:58:51.932Z,11.30
2019-04-27T20:01:26.029Z,11.00
2019-04-27T20:03:59.792Z,12.37
2019-04-27T20:06:29.245Z,12.70
2019-04-27T20:09:02.194Z,12.80
2019-04-27T20:11:30.111Z,12.03
2019-04-27T20:13:58.047Z,11.60
2019-04-27T20:16:25.839Z,13.27
2019-04-27T20:18:53.910Z,13.30
2019-04-27T20:21:21.925Z,13.80
2019-04-27T20:23:50.705Z,13.07
2019-04-27T20:26:18.665Z,14.13
2019-04-27T20:28:46.556Z,13.63
2019-04-27T20:31:14.344Z,14.17
2019-04-27T20:33:42.196Z,15.73
2019-04-27T20:36:11.225Z,15.77
2019-04-27T20:38:39.575Z,16.07
2019-04-27T20:41:07.406Z,14.80
2019-04-27T20:43:35.404Z,14.53
2019-04-27T20:46:03.787Z,15.77
2019-04-27T20:48:31.731Z,15.83
2019-04-27T20:51:01.178Z,17.30
2019-04-27T20:53:34.262Z,16.43
2019-04-27T20:56:02.155Z,15.67
2019-04-27T20:58:31.104Z,16.60
2019-04-27T21:00:59.226Z,16.07
2019-04-27T21:03:52.207Z,16.77
2019-04-27T21:06:41.005Z,17.47
2019-04-27T21:09:21.219Z,17.97
2019-04-27T21:11:49.094Z,17.50
2019-04-27T21:14:17.156Z,17.30
2019-04-27T21:16:45.145Z,16.90
2019-04-27T21:19:13.116Z,17.07
2019-04-27T21:21:42.728Z,18.23
2019-04-27T21:24:11.002Z,17.67
2019-04-27T21:26:39.512Z,17.63
2019-04-27T21:29:07.502Z,17.67
2019-04-27T21:31:35.510Z,16.67
2019-04-27T21:34:03.473Z,17.90
2019-04-27T21:36:31.290Z,17.73
2019-04-27T21:38:59.223Z,18.97
2019-04-27T21:41:27.106Z,17.60
2019-04-27T21:43:54.945Z,9.50
2019-04-27T21:46:23.205Z,7.60
2019-04-27T21:48:51.101Z,12.10
2019-04-27T21:51:21.688Z,13.27
2019-04-27T21:54:02.082Z,12.03
2019-04-27T21:56:31.284Z,12.57
2019-04-27T21:59:01.022Z,13.17
2019-04-27T22:01:31.843Z,12.37
2019-04-27T22:04:01.011Z,13.97
2019-04-27T22:06:29.273Z,13.20
2019-04-27T22:08:57.284Z,13.17
2019-04-27T22:11:26.051Z,11.07
2019-04-27T22:13:53.963Z,13.73
2019-04-27T22:16:22.819Z,15.27
2019-04-27T22:18:52.030Z,15.80
2019-04-27T22:21:21.638Z,16.90
2019-04-27T22:23:58.649Z,16.93
2019-04-27T22:26:26.579Z,17.43
2019-04-27T22:28:54.688Z,17.57
2019-04-27T22:31:22.755Z,16.90
2019-04-27T22:33:53.814Z,17.03
2019-04-27T22:36:21.286Z,16.93
2019-04-27T22:38:49.324Z,18.37
2019-04-27T22:41:32.944Z,16.97
2019-04-27T22:44:21.519Z,17.47
2019-04-27T22:46:50.287Z,17.43
2019-04-27T22:49:18.994Z,17.87
2019-04-27T22:51:47.131Z,17.03
2019-04-27T22:54:15.456Z,16.57
2019-04-27T22:56:43.914Z,17.90
2019-04-27T22:59:23.079Z,18.17
2019-04-27T23:02:09.264Z,18.47
2019-04-27T23:04:42.058Z,18.63
2019-04-27T23:07:11.066Z,17.70
2019-04-27T23:09:40.724Z,17.80
2019-04-27T23:12:08.990Z,19.03
2019-04-27T23:14:36.705Z,19.07
2019-04-27T23:17:31.551Z,18.67
2019-04-27T23:20:01.281Z,18.47
2019-04-27T23:22:31.523Z,18.00
2019-04-27T23:25:01.074Z,18.60
2019-04-27T23:27:29.558Z,18.03
2019-04-27T23:29:57.291Z,20.80
2019-04-27T23:32:31.992Z,18.70
2019-04-27T23:34:59.830Z,17.87
2019-04-27T23:37:27.629Z,17.60
2019-04-27T23:39:55.362Z,18.83
2019-04-27T23:42:23.131Z,18.90
2019-04-27T23:44:50.914Z,19.87
2019-04-27T23:47:18.815Z,19.53
2019-04-27T23:49:46.575Z,20.67
2019-04-27T23:52:19.366Z,19.57
2019-04-27T23:54:47.086Z,19.70
2019-04-27T23:57:14.875Z,20.00
2019-04-27T23:59:42.700Z,19.47
